Terminal Aerodrome Forecast
Issued by NWS

Home | Current Version | Previous Version | Text Only | Print | Product List | Glossary On
Versions: 1 2 3 4 5 6 7 8 9 10 11 12 13 14 15 16 17 18 19 20 21 22 23 24 25 26 27 28
000
FTUS45 KPSR 160300 AAC
TAFPHX
TAF AMD
KPHX 160305Z 1603/1624 25003KT P6SM SCT100 BKN200
     FM160600 10009KT P6SM SCT120 BKN200
     FM161300 14008KT P6SM BKN070 BKN150
     FM162200 16008KT P6SM VCSH BKN080 BKN120=

USA.gov is the U.S. government's official web portal to all federal, state and local government web resources and services.